Time;durP1;ratioP1;P1;durP2;ratioP2;P2;SDS_P1;SDS_P2;PMS_P1;PMS_P2;Temp;Humidity;BMP_temperature;BMP_pressure;BME280_temperature;BME280_humidity;BME280_pressure;Samples;Min_cycle;Max_cycle;Signal;HPM_P1;HPM_P2
2021/06/26 00:01:45;;;;;;;2.87;2.57;;;24.80;42.30;;;;;;8263281;28;20499;-49
2021/06/26 00:05:46;;;;;;;3.88;2.80;;;24.80;42.30;;;;;;8264319;28;20285;-49
2021/06/26 00:09:46;;;;;;;3.10;2.80;;;24.80;42.40;;;;;;8264378;28;20132;-52
2021/06/26 00:13:47;;;;;;;3.67;2.85;;;24.80;42.30;;;;;;8268222;28;20109;-49
2021/06/26 00:17:48;;;;;;;3.60;2.90;;;24.70;42.30;;;;;;8263918;28;20105;-48
2021/06/26 00:21:48;;;;;;;3.15;2.85;;;24.70;42.30;;;;;;8263893;28;20039;-50
2021/06/26 00:25:49;;;;;;;3.20;2.90;;;24.70;42.30;;;;;;8263260;28;20027;-49
2021/06/26 00:29:49;;;;;;;3.63;2.78;;;24.70;42.30;;;;;;8268309;28;20566;-49
2021/06/26 00:33:50;;;;;;;4.82;3.03;;;24.80;42.40;;;;;;8263640;28;20105;-49
2021/06/26 00:37:50;;;;;;;3.92;2.92;;;24.70;42.30;;;;;;8263418;28;20097;-48
2021/06/26 00:41:51;;;;;;;3.00;2.67;;;24.70;42.30;;;;;;8263515;28;20480;-49
2021/06/26 00:45:51;;;;;;;3.22;2.90;;;24.70;42.30;;;;;;8269885;28;20089;-48
2021/06/26 00:49:53;;;;;;;3.30;3.00;;;24.70;42.40;;;;;;8253699;28;20027;-47
2021/06/26 00:53:53;;;;;;;;;;;24.70;42.40;;;;;;8248657;28;20042;-48
2021/06/26 00:58:01;;;;;;;3.33;2.70;;;24.70;42.40;;;;;;8265409;28;20439;-48
2021/06/26 01:02:03;;;;;;;3.38;2.67;;;24.60;42.40;;;;;;8263709;28;20038;-49
2021/06/26 01:06:04;;;;;;;3.20;2.90;;;24.60;42.40;;;;;;8267331;28;20050;-48
2021/06/26 01:10:07;;;;;;;3.00;2.70;;;24.60;42.40;;;;;;8262158;28;20038;-48
2021/06/26 01:14:08;;;;;;;3.42;3.13;;;24.60;42.40;;;;;;8261505;28;20472;-49
2021/06/26 01:18:09;;;;;;;4.78;2.92;;;24.60;42.40;;;;;;8262596;28;20076;-48
2021/06/26 01:22:11;;;;;;;4.15;3.10;;;24.60;42.40;;;;;;8266450;28;20394;-50
2021/06/26 01:26:13;;;;;;;3.50;2.90;;;24.60;42.40;;;;;;8262046;28;20038;-48
2021/06/26 01:30:16;;;;;;;4.82;3.25;;;24.60;42.40;;;;;;8262097;28;20041;-48
2021/06/26 01:34:17;;;;;;;3.30;2.78;;;24.60;42.50;;;;;;8261281;28;20044;-49
2021/06/26 01:38:17;;;;;;;4.28;2.90;;;24.60;42.50;;;;;;8261144;28;20429;-49
2021/06/26 01:42:18;;;;;;;3.92;2.90;;;24.60;42.50;;;;;;8266271;28;20030;-51
2021/06/26 01:46:18;;;;;;;3.50;2.55;;;24.50;42.40;;;;;;8261155;28;20030;-51
2021/06/26 01:50:21;;;;;;;4.10;2.88;;;24.50;42.50;;;;;;8261554;28;20046;-48
2021/06/26 01:54:22;;;;;;;4.45;3.30;;;24.50;42.40;;;;;;8261114;28;20054;-49
2021/06/26 01:58:24;;;;;;;3.80;2.92;;;24.50;42.50;;;;;;8265350;28;20555;-50
2021/06/26 02:02:24;;;;;;;3.55;2.72;;;24.50;42.50;;;;;;8261621;28;20579;-49
2021/06/26 02:06:25;;;;;;;4.30;2.87;;;24.50;42.40;;;;;;8261104;28;20046;-50
2021/06/26 02:10:25;;;;;;;4.15;2.92;;;24.50;42.40;;;;;;8260395;28;20278;-50
2021/06/26 02:14:26;;;;;;;3.58;2.70;;;24.50;42.40;;;;;;8265288;28;20039;-51
2021/06/26 02:18:27;;;;;;;4.15;3.05;;;24.50;42.50;;;;;;8261047;28;20439;-50
2021/06/26 02:22:27;;;;;;;4.95;3.25;;;24.50;42.50;;;;;;8260335;28;20488;-50
2021/06/26 02:26:28;;;;;;;3.60;3.30;;;24.40;42.50;;;;;;8251282;28;20035;-49
2021/06/26 02:30:28;;;;;;;3.20;2.90;;;24.50;42.50;;;;;;8256170;28;20836;-50
2021/06/26 02:34:29;;;;;;;4.32;3.08;;;24.40;42.40;;;;;;8271136;28;20073;-49
2021/06/26 02:38:29;;;;;;;5.18;2.83;;;24.40;42.50;;;;;;8267049;28;20112;-50
2021/06/26 02:42:30;;;;;;;4.53;3.00;;;24.40;42.50;;;;;;8267511;28;20435;-49
2021/06/26 02:46:30;;;;;;;4.47;3.33;;;24.40;42.50;;;;;;8266570;28;20053;-50
2021/06/26 02:50:31;;;;;;;3.65;2.97;;;24.40;42.50;;;;;;8271302;28;20276;-49
2021/06/26 02:54:35;;;;;;;3.95;2.85;;;24.40;42.50;;;;;;8266848;28;20046;-50
2021/06/26 02:58:36;;;;;;;3.55;2.97;;;24.40;42.50;;;;;;8266045;28;20069;-48
2021/06/26 03:02:36;;;;;;;4.43;3.00;;;24.30;42.50;;;;;;8266588;28;20479;-49
2021/06/26 03:06:37;;;;;;;4.32;3.35;;;24.30;42.50;;;;;;8266676;28;20030;-50
2021/06/26 03:10:37;;;;;;;3.53;3.20;;;24.30;42.50;;;;;;8285209;28;20960;-49
2021/06/26 03:14:38;;;;;;;3.75;3.10;;;24.30;42.50;;;;;;8266272;28;20078;-49
2021/06/26 03:18:43;;;;;;;4.50;3.20;;;24.30;42.50;;;;;;8252755;28;20035;-50
2021/06/26 03:22:43;;;;;;;4.03;3.30;;;24.30;42.50;;;;;;8238070;28;20504;-49
2021/06/26 03:26:44;;;;;;;3.20;2.78;;;24.30;42.50;;;;;;8270200;28;20035;-49
2021/06/26 03:30:44;;;;;;;4.35;3.13;;;24.30;42.60;;;;;;8265627;28;20038;-49
2021/06/26 03:34:45;;;;;;;3.97;2.93;;;24.30;42.60;;;;;;8264940;28;20384;-49
2021/06/26 03:38:46;;;;;;;4.17;2.80;;;24.30;42.60;;;;;;8264610;28;20368;-50
2021/06/26 03:42:47;;;;;;;3.05;2.70;;;24.30;43.10;;;;;;8269587;28;20062;-49
2021/06/26 03:46:47;;;;;;;3.70;3.27;;;24.30;42.60;;;;;;8264716;28;20038;-50
2021/06/26 03:50:48;;;;;;;4.77;3.23;;;24.20;42.60;;;;;;8265403;28;20274;-49
2021/06/26 03:54:49;;;;;;;3.40;3.10;;;24.30;42.60;;;;;;8264939;28;20378;-49
2021/06/26 03:58:49;;;;;;;5.57;3.63;;;24.30;42.60;;;;;;8264321;28;20045;-49
2021/06/26 04:02:50;;;;;;;4.03;2.92;;;24.30;42.60;;;;;;8269285;28;20157;-49
2021/06/26 04:06:50;;;;;;;4.45;3.38;;;24.20;43.10;;;;;;8264767;28;20038;-49
2021/06/26 04:10:51;;;;;;;4.13;3.00;;;24.20;42.60;;;;;;8263950;28;20066;-50
2021/06/26 04:14:51;;;;;;;3.88;3.03;;;24.20;42.60;;;;;;8264217;28;20038;-49
2021/06/26 04:18:52;;;;;;;4.00;3.08;;;24.20;42.60;;;;;;8268719;28;20026;-50
2021/06/26 04:22:53;;;;;;;5.10;3.50;;;24.20;42.70;;;;;;8263219;28;20125;-49
2021/06/26 04:26:54;;;;;;;4.18;3.38;;;24.20;42.70;;;;;;8264171;28;20061;-49
2021/06/26 04:30:54;;;;;;;3.55;3.15;;;24.20;42.70;;;;;;8263405;28;20036;-47
2021/06/26 04:34:55;;;;;;;3.40;2.80;;;24.20;42.70;;;;;;8266831;28;20081;-52
2021/06/26 04:38:55;;;;;;;3.33;2.88;;;24.20;42.70;;;;;;8265993;28;20379;-52
2021/06/26 04:42:56;;;;;;;3.17;2.85;;;24.20;42.70;;;;;;8262636;28;20038;-50
2021/06/26 04:46:56;;;;;;;3.60;2.78;;;24.20;42.70;;;;;;8263614;28;20038;-50
2021/06/26 04:50:57;;;;;;;3.72;2.85;;;24.20;42.70;;;;;;8262861;28;20076;-49
2021/06/26 04:54:58;;;;;;;3.67;2.83;;;24.20;42.70;;;;;;8266889;28;20057;-49
2021/06/26 04:58:58;;;;;;;3.88;3.10;;;24.20;42.80;;;;;;8262643;28;20041;-49
2021/06/26 05:02:59;;;;;;;3.75;3.10;;;24.10;42.70;;;;;;8262573;28;20057;-49
2021/06/26 05:06:59;;;;;;;4.68;3.35;;;24.10;42.70;;;;;;8262187;28;20042;-49
2021/06/26 05:11:01;;;;;;;3.57;2.77;;;24.20;42.80;;;;;;8266692;28;20038;-49
2021/06/26 05:15:01;;;;;;;;;;;24.10;42.70;;;;;;8262615;28;20302;-48
2021/06/26 05:19:02;;;;;;;3.97;3.23;;;24.10;42.70;;;;;;8261434;28;19968;-49
2021/06/26 05:23:13;;;;;;;5.03;3.38;;;24.10;42.70;;;;;;8262000;28;20038;-48
2021/06/26 05:27:14;;;;;;;3.45;3.08;;;24.20;42.80;;;;;;8262096;28;20451;-49
2021/06/26 05:31:14;;;;;;;5.63;3.40;;;24.10;42.70;;;;;;8265925;28;20030;-49
2021/06/26 05:35:15;;;;;;;6.40;3.78;;;24.10;42.70;;;;;;8261787;28;20289;-50
2021/06/26 05:39:15;;;;;;;4.40;3.63;;;24.10;42.80;;;;;;8261738;28;20041;-49
2021/06/26 05:43:16;;;;;;;4.18;3.15;;;24.10;42.80;;;;;;8261412;28;20040;-49
2021/06/26 05:47:17;;;;;;;4.05;3.40;;;24.20;42.80;;;;;;8266198;28;20407;-50
2021/06/26 05:51:19;;;;;;;4.80;3.17;;;24.10;42.70;;;;;;8261601;28;20069;-50
2021/06/26 05:55:20;;;;;;;5.85;3.60;;;24.10;42.80;;;;;;8260618;28;20046;-49
2021/06/26 05:59:21;;;;;;;;;;;24.10;42.70;;;;;;8261470;28;20377;-50
2021/06/26 06:03:21;;;;;;;3.47;3.17;;;24.10;42.80;;;;;;8263136;28;20004;-49
2021/06/26 06:07:22;;;;;;;5.40;3.10;;;24.20;42.80;;;;;;8263231;28;20048;-49
2021/06/26 06:11:22;;;;;;;3.92;3.42;;;24.10;42.70;;;;;;8261345;28;20066;-48
2021/06/26 06:15:23;;;;;;;5.00;3.20;;;24.10;42.70;;;;;;8260834;28;20046;-49
2021/06/26 06:19:23;;;;;;;4.78;3.05;;;24.10;42.70;;;;;;8260370;28;20077;-49
2021/06/26 06:23:24;;;;;;;3.50;2.88;;;24.20;42.70;;;;;;8265604;28;20062;-49
2021/06/26 06:27:24;;;;;;;3.90;3.15;;;24.20;42.70;;;;;;8260846;28;20046;-52
2021/06/26 06:31:25;;;;;;;3.15;2.85;;;24.20;42.70;;;;;;8260409;28;20506;-49
2021/06/26 06:35:27;;;;;;;3.20;2.90;;;24.20;42.60;;;;;;8261137;28;20054;-49
2021/06/26 06:39:27;;;;;;;4.28;3.20;;;24.20;42.70;;;;;;8265217;28;20129;-49
2021/06/26 06:43:28;;;;;;;3.77;3.30;;;24.20;42.70;;;;;;8260192;28;20510;-49
2021/06/26 06:47:28;;;;;;;3.47;3.00;;;24.20;42.60;;;;;;8260810;28;20273;-49
2021/06/26 06:51:29;;;;;;;5.40;2.90;;;24.20;42.60;;;;;;8261090;28;20092;-50
2021/06/26 06:55:30;;;;;;;3.70;3.40;;;24.20;42.60;;;;;;8260250;28;20046;-51
2021/06/26 06:59:30;;;;;;;3.35;3.05;;;24.20;42.70;;;;;;8264740;28;20038;-50
2021/06/26 07:03:30;;;;;;;4.18;3.10;;;24.20;42.60;;;;;;8260577;28;20491;-50
2021/06/26 07:07:31;;;;;;;3.47;3.13;;;24.20;42.70;;;;;;8259967;28;20042;-49
2021/06/26 07:11:31;;;;;;;3.30;3.00;;;24.20;42.60;;;;;;8261816;28;20405;-50
2021/06/26 07:15:32;;;;;;;4.03;3.23;;;24.30;42.70;;;;;;8270461;28;20294;-49
2021/06/26 07:19:33;;;;;;;3.50;3.13;;;24.30;42.70;;;;;;8265794;28;20371;-49
2021/06/26 07:23:33;;;;;;;3.33;3.00;;;24.20;42.70;;;;;;8265988;28;20035;-48
2021/06/26 07:27:34;;;;;;;4.53;3.37;;;24.30;42.70;;;;;;8266081;28;20361;-48
2021/06/26 07:31:35;;;;;;;4.03;3.20;;;24.30;42.70;;;;;;8269902;28;20258;-48
2021/06/26 07:35:35;;;;;;;4.43;3.30;;;24.30;42.70;;;;;;8265944;28;20038;-49
2021/06/26 07:39:36;;;;;;;4.00;2.95;;;24.30;42.70;;;;;;8265606;28;20031;-49
2021/06/26 07:43:36;;;;;;;5.05;3.03;;;24.30;42.70;;;;;;8264846;28;20026;-49
2021/06/26 07:47:37;;;;;;;3.38;2.80;;;24.30;42.70;;;;;;8265362;28;20117;-49
2021/06/26 07:51:38;;;;;;;4.28;3.33;;;24.30;42.80;;;;;;8269722;28;20118;-49
2021/06/26 07:55:38;;;;;;;3.83;3.20;;;24.30;42.70;;;;;;8263963;28;20523;-49
2021/06/26 07:59:39;;;;;;;4.80;2.97;;;24.30;42.80;;;;;;8263512;28;20035;-51
2021/06/26 08:03:39;;;;;;;4.13;3.10;;;24.30;42.70;;;;;;8259902;28;20286;-50
2021/06/26 08:07:40;;;;;;;3.78;2.80;;;24.30;42.80;;;;;;8236639;28;20424;-50
2021/06/26 08:11:40;;;;;;;3.95;3.08;;;24.30;42.70;;;;;;8261126;28;20058;-50
2021/06/26 08:15:42;;;;;;;3.97;3.13;;;24.30;42.70;;;;;;8264195;28;20076;-49
2021/06/26 08:19:43;;;;;;;4.57;3.40;;;24.30;42.70;;;;;;8263747;28;20042;-51
2021/06/26 08:23:43;;;;;;;3.22;2.90;;;24.30;42.80;;;;;;8268450;28;20403;-49
2021/06/26 08:27:44;;;;;;;3.15;2.85;;;24.30;42.80;;;;;;8264215;28;20038;-48
2021/06/26 08:31:44;;;;;;;3.60;3.03;;;24.40;42.80;;;;;;8263512;28;20089;-49
2021/06/26 08:35:45;;;;;;;3.30;2.90;;;24.30;43.30;;;;;;8263816;28;20411;-49
2021/06/26 08:39:46;;;;;;;4.22;2.95;;;24.40;42.80;;;;;;8263824;28;20277;-49
2021/06/26 08:43:46;;;;;;;3.85;3.03;;;24.40;42.80;;;;;;8267366;28;20029;-48
2021/06/26 08:47:52;;;;;;;3.67;3.10;;;24.40;42.70;;;;;;8263402;28;20041;-48
2021/06/26 08:51:54;;;;;;;3.35;2.80;;;24.40;42.70;;;;;;8263346;28;20042;-49
2021/06/26 08:55:55;;;;;;;3.63;2.97;;;24.40;42.70;;;;;;8262991;28;20093;-49
2021/06/26 08:59:58;;;;;;;3.78;2.85;;;24.40;42.70;;;;;;8267677;28;20439;-48
2021/06/26 09:04:04;;;;;;;3.40;2.65;;;24.40;42.70;;;;;;8262734;28;20049;-48
2021/06/26 09:08:13;;;;;;;3.72;2.85;;;24.40;42.70;;;;;;8263042;28;20034;-49
2021/06/26 09:12:19;;;;;;;4.32;3.20;;;24.50;42.70;;;;;;8262644;28;20125;-49
2021/06/26 09:16:20;;;;;;;3.35;2.80;;;24.50;42.70;;;;;;8262190;28;20424;-50
2021/06/26 09:20:34;;;;;;;3.28;2.97;;;24.50;42.70;;;;;;8267020;28;20126;-50
2021/06/26 09:24:42;;;;;;;4.07;3.35;;;24.50;42.70;;;;;;8262559;28;20042;-50
2021/06/26 09:28:43;;;;;;;3.30;2.67;;;24.50;42.70;;;;;;8261674;28;20039;-50
2021/06/26 09:32:46;;;;;;;;;;;24.60;42.70;;;;;;8262482;28;20042;-49
2021/06/26 09:36:58;;;;;;;3.92;2.72;;;24.60;42.60;;;;;;8261229;28;19918;-52
2021/06/26 09:41:11;;;;;;;3.40;2.72;;;24.60;42.70;;;;;;8265925;28;20124;-49
2021/06/26 09:45:13;;;;;;;3.25;2.60;;;24.60;42.60;;;;;;8261917;28;20042;-49
2021/06/26 09:49:14;;;;;;;3.80;2.85;;;24.70;42.70;;;;;;8261231;28;20515;-52
2021/06/26 09:53:14;;;;;;;;;;;24.70;42.70;;;;;;8262224;28;20463;-52
2021/06/26 09:57:15;;;;;;;2.67;2.47;;;24.70;42.90;;;;;;8265825;28;19925;-50
2021/06/26 10:01:16;;;;;;;3.20;2.53;;;24.80;42.60;;;;;;8261340;28;20412;-49
2021/06/26 10:05:17;;;;;;;3.25;2.75;;;24.80;42.70;;;;;;8261677;28;20050;-50
2021/06/26 10:09:19;;;;;;;3.05;2.75;;;24.80;42.70;;;;;;8261339;28;20563;-50
2021/06/26 10:13:19;;;;;;;3.33;2.60;;;24.80;42.60;;;;;;8258654;28;20824;-49
2021/06/26 10:17:22;;;;;;;3.75;3.03;;;24.80;42.60;;;;;;8233160;28;20042;-49
2021/06/26 10:21:22;;;;;;;3.35;2.60;;;24.90;42.60;;;;;;8254684;28;20121;-50
2021/06/26 10:25:35;;;;;;;2.83;2.47;;;24.90;42.50;;;;;;8260418;28;20057;-48
2021/06/26 10:29:36;;;;;;;2.88;2.63;;;25.00;42.50;;;;;;8261267;28;20027;-48
2021/06/26 10:33:38;;;;;;;2.55;2.35;;;25.00;42.50;;;;;;8265305;28;20130;-48
2021/06/26 10:37:38;;;;;;;;;;;25.00;42.40;;;;;;8260828;28;20058;-48
2021/06/26 10:41:39;;;;;;;3.67;2.80;;;25.00;42.40;;;;;;8260463;28;19914;-51
2021/06/26 10:45:39;;;;;;;3.20;2.90;;;25.10;42.40;;;;;;8260623;28;20046;-50
2021/06/26 10:49:40;;;;;;;4.10;3.10;;;25.10;42.40;;;;;;8267015;28;20206;-48
2021/06/26 10:53:41;;;;;;;4.22;3.03;;;25.10;42.40;;;;;;8271730;28;20048;-50
2021/06/26 10:57:46;;;;;;;3.05;2.70;;;25.10;42.40;;;;;;8266905;28;20054;-49
2021/06/26 11:01:57;;;;;;;3.15;2.85;;;25.20;42.30;;;;;;8266512;28;20049;-49
2021/06/26 11:06:01;;;;;;;3.25;2.63;;;25.20;42.30;;;;;;8259935;28;20034;-52
2021/06/26 11:10:20;;;;;;;3.40;2.67;;;25.20;42.30;;;;;;8238489;28;20439;-53
2021/06/26 11:14:26;;;;;;;3.83;2.95;;;25.20;42.30;;;;;;8238486;28;20435;-52
2021/06/26 11:18:26;;;;;;;3.88;3.15;;;25.20;42.30;;;;;;8258972;28;20105;-49
2021/06/26 11:22:27;;;;;;;3.25;2.92;;;25.20;42.30;;;;;;8265759;28;20129;-49
2021/06/26 11:26:27;;;;;;;3.65;3.30;;;25.20;42.30;;;;;;8265897;28;20104;-49
2021/06/26 11:30:28;;;;;;;3.67;2.90;;;25.20;42.30;;;;;;8270385;28;20023;-53
2021/06/26 11:34:29;;;;;;;4.53;2.78;;;25.20;42.20;;;;;;8265241;28;20085;-49
2021/06/26 11:38:29;;;;;;;;;;;25.30;42.30;;;;;;8266299;28;20043;-49
2021/06/26 11:42:30;;;;;;;3.30;2.70;;;25.30;42.30;;;;;;8265882;28;19913;-49
2021/06/26 11:46:30;;;;;;;2.70;2.40;;;25.30;42.20;;;;;;8269701;28;20026;-48
2021/06/26 11:50:32;;;;;;;3.10;2.67;;;25.30;42.20;;;;;;8265495;28;20043;-50
2021/06/26 11:54:32;;;;;;;3.42;2.60;;;25.40;42.30;;;;;;8265518;28;20530;-51
2021/06/26 11:58:49;;;;;;;3.03;2.70;;;25.40;42.30;;;;;;8251983;28;20037;-48
2021/06/26 12:02:49;;;;;;;3.58;2.95;;;25.40;42.30;;;;;;8238197;28;20484;-49
2021/06/26 12:06:50;;;;;;;3.58;2.85;;;25.40;42.20;;;;;;8269421;28;20058;-50
2021/06/26 12:10:50;;;;;;;;;;;25.40;42.20;;;;;;8264739;28;20557;-49
2021/06/26 12:14:52;;;;;;;2.92;2.63;;;25.50;42.20;;;;;;8264709;28;19929;-49
2021/06/26 12:19:15;;;;;;;3.15;2.80;;;25.50;42.20;;;;;;8264391;28;20018;-48
2021/06/26 12:23:15;;;;;;;3.35;2.95;;;25.50;42.20;;;;;;8264342;28;20492;-47
2021/06/26 12:27:23;;;;;;;3.65;2.92;;;25.50;42.10;;;;;;8268722;28;20038;-48
2021/06/26 12:31:25;;;;;;;3.28;2.90;;;25.60;42.10;;;;;;8263152;28;20038;-49
2021/06/26 12:35:29;;;;;;;3.15;2.70;;;25.50;42.10;;;;;;8263729;28;20050;-48
2021/06/26 12:39:33;;;;;;;3.25;2.50;;;25.60;42.10;;;;;;8263664;28;20058;-48
2021/06/26 12:43:34;;;;;;;4.30;3.00;;;25.60;42.20;;;;;;8267578;28;20488;-48
2021/06/26 12:47:35;;;;;;;3.10;2.80;;;25.50;42.10;;;;;;8263487;28;20034;-48
2021/06/26 12:51:46;;;;;;;3.05;2.65;;;25.60;42.10;;;;;;8263270;28;20507;-47
2021/06/26 12:56:03;;;;;;;3.33;3.03;;;25.60;42.10;;;;;;8262118;28;20177;-49
2021/06/26 13:00:21;;;;;;;2.90;2.58;;;25.60;42.10;;;;;;8263218;28;20034;-48
2021/06/26 13:04:47;;;;;;;3.15;2.67;;;25.60;42.10;;;;;;8267118;28;20117;-50
2021/06/26 13:08:50;;;;;;;3.40;2.75;;;25.60;42.00;;;;;;8282389;28;20045;-49
2021/06/26 13:12:50;;;;;;;2.78;2.47;;;25.60;42.00;;;;;;8262621;28;20045;-47
2021/06/26 13:16:51;;;;;;;3.13;2.78;;;25.60;41.90;;;;;;8248046;28;20043;-48
2021/06/26 13:20:51;;;;;;;;;;;25.70;42.00;;;;;;8235751;28;20443;-48
2021/06/26 13:24:52;;;;;;;2.33;2.13;;;25.70;42.00;;;;;;8266711;28;19917;-48
2021/06/26 13:28:53;;;;;;;3.25;2.58;;;25.70;42.00;;;;;;8261646;28;20034;-48
2021/06/26 13:32:58;;;;;;;3.13;2.80;;;25.70;41.90;;;;;;8262378;28;20062;-48
2021/06/26 13:36:59;;;;;;;3.10;2.40;;;25.70;41.80;;;;;;8261518;28;20141;-47
2021/06/26 13:40:59;;;;;;;4.03;2.70;;;25.70;41.70;;;;;;8266324;28;20484;-48
2021/06/26 13:45:00;;;;;;;;;;;25.70;41.70;;;;;;8231916;28;20157;-49
2021/06/26 13:49:00;;;;;;;3.17;2.77;;;25.80;41.90;;;;;;8252304;28;20379;-48
2021/06/26 13:53:01;;;;;;;;;;;25.80;41.90;;;;;;8261877;28;20166;-49
2021/06/26 13:57:02;;;;;;;2.77;2.33;;;25.80;41.90;;;;;;8261164;28;19926;-48
2021/06/26 14:01:02;;;;;;;;;;;25.80;41.90;;;;;;8265655;28;20026;-48
2021/06/26 14:05:03;;;;;;;2.67;2.47;;;25.80;41.80;;;;;;8261058;28;19924;-48
2021/06/26 14:09:06;;;;;;;2.83;2.50;;;25.80;41.80;;;;;;8260617;28;20034;-47
2021/06/26 14:13:07;;;;;;;3.95;2.28;;;25.80;41.80;;;;;;8260438;28;20496;-47
2021/06/26 14:17:08;;;;;;;3.20;2.60;;;25.80;41.80;;;;;;8265652;28;20057;-50
2021/06/26 14:21:09;;;;;;;2.95;2.65;;;25.80;41.70;;;;;;8260621;28;20036;-48
2021/06/26 14:25:11;;;;;;;3.15;2.70;;;25.90;41.80;;;;;;8260440;28;20435;-49
2021/06/26 14:29:11;;;;;;;3.35;2.50;;;25.90;41.70;;;;;;8260856;28;20061;-50
2021/06/26 14:33:12;;;;;;;2.60;2.40;;;25.90;41.80;;;;;;8260712;28;20027;-48
2021/06/26 14:37:12;;;;;;;;;;;25.90;41.70;;;;;;8265113;28;20046;-48
2021/06/26 14:41:13;;;;;;;3.33;2.83;;;25.90;41.60;;;;;;8260601;28;19918;-48
2021/06/26 14:45:14;;;;;;;;;;;25.90;41.70;;;;;;8260934;28;20109;-51
2021/06/26 14:49:14;;;;;;;2.90;2.40;;;26.00;41.80;;;;;;8260141;28;19936;-47
2021/06/26 14:53:15;;;;;;;;;;;25.90;41.60;;;;;;8265504;28;20121;-48
2021/06/26 14:57:16;;;;;;;2.90;2.60;;;26.00;41.60;;;;;;8259785;28;19929;-47
2021/06/26 15:01:16;;;;;;;3.80;2.75;;;26.00;41.70;;;;;;8259972;28;20045;-48
2021/06/26 15:05:17;;;;;;;;;;;26.00;41.50;;;;;;8260995;28;20039;-47
2021/06/26 15:09:17;;;;;;;3.20;2.60;;;26.00;41.70;;;;;;8264790;28;19909;-49
2021/06/26 15:13:18;;;;;;;;;;;26.00;41.60;;;;;;8260487;28;20038;-48
2021/06/26 15:17:18;;;;;;;2.80;2.47;;;26.00;41.60;;;;;;8275042;28;20442;-49
2021/06/26 15:21:19;;;;;;;;;;;26.00;41.50;;;;;;8258821;28;20030;-48
2021/06/26 15:25:20;;;;;;;3.57;2.50;;;26.00;41.60;;;;;;8259063;28;19913;-48
2021/06/26 15:29:20;;;;;;;2.95;2.65;;;26.00;41.50;;;;;;8264490;28;20035;-48
2021/06/26 15:33:21;;;;;;;3.00;2.22;;;26.10;41.40;;;;;;8260827;28;20390;-48
2021/06/26 15:37:22;;;;;;;3.00;2.70;;;26.00;41.30;;;;;;8264827;28;20034;-49
2021/06/26 15:41:22;;;;;;;;;;;26.10;41.30;;;;;;8265793;28;20034;-49
2021/06/26 15:45:23;;;;;;;3.50;2.50;;;26.10;41.40;;;;;;8269822;28;20393;-49
2021/06/26 15:49:23;;;;;;;2.60;2.40;;;26.10;41.60;;;;;;8264101;28;20030;-49
2021/06/26 15:53:24;;;;;;;;;;;26.10;41.50;;;;;;8265738;28;20030;-51
2021/06/26 15:57:24;;;;;;;2.90;2.53;;;26.10;41.60;;;;;;8265132;28;20359;-49
2021/06/26 16:01:25;;;;;;;;;;;26.10;41.40;;;;;;8269308;28;20085;-53
2021/06/26 16:05:26;;;;;;;2.73;2.50;;;26.10;41.00;;;;;;8265768;28;19972;-52
2021/06/26 16:09:26;;;;;;;;;;;26.00;41.30;;;;;;8265183;28;20517;-48
2021/06/26 16:13:27;;;;;;;2.63;2.17;;;26.10;41.00;;;;;;8264084;28;19918;-49
2021/06/26 16:17:27;;;;;;;;;;;26.10;41.00;;;;;;8263465;28;20177;-48
2021/06/26 16:21:28;;;;;;;2.47;2.27;;;26.10;41.00;;;;;;8268934;28;19910;-49
2021/06/26 16:25:28;;;;;;;;;;;26.10;41.20;;;;;;8263917;28;20030;-49
2021/06/26 16:29:29;;;;;;;2.50;2.30;;;26.10;41.00;;;;;;8248923;28;19922;-49
2021/06/26 16:33:30;;;;;;;;;;;26.10;41.30;;;;;;8239341;28;20038;-48
2021/06/26 16:37:39;;;;;;;2.58;2.38;;;26.10;41.00;;;;;;8267970;28;19941;-48
2021/06/26 16:41:41;;;;;;;3.30;2.80;;;26.00;40.80;;;;;;8263900;28;20039;-50
2021/06/26 16:45:41;;;;;;;3.55;2.42;;;26.10;41.20;;;;;;8263100;28;20061;-52
2021/06/26 16:49:42;;;;;;;3.17;2.85;;;26.10;41.10;;;;;;8262567;28;20034;-51
2021/06/26 16:53:42;;;;;;;;;;;26.10;41.40;;;;;;8263637;28;20046;-48
2021/06/26 16:57:43;;;;;;;3.43;2.53;;;26.00;41.30;;;;;;8266854;28;20299;-49
2021/06/26 17:01:43;;;;;;;;;;;26.00;41.20;;;;;;8262960;28;20035;-51
2021/06/26 17:05:44;;;;;;;3.00;2.47;;;26.00;41.10;;;;;;8262739;28;20299;-48
2021/06/26 17:09:45;;;;;;;;;;;26.00;41.30;;;;;;8263233;28;20499;-47
2021/06/26 17:13:45;;;;;;;2.70;2.50;;;26.00;41.30;;;;;;8266669;28;19920;-48
2021/06/26 17:17:46;;;;;;;;;;;26.00;41.30;;;;;;8263180;28;20054;-49
2021/06/26 17:21:46;;;;;;;3.07;2.60;;;26.00;41.40;;;;;;8262448;28;19910;-48
2021/06/26 17:25:47;;;;;;;2.92;2.60;;;26.00;41.40;;;;;;8261862;28;20035;-48
2021/06/26 17:29:48;;;;;;;;;;;26.00;41.40;;;;;;8266971;28;20034;-47
2021/06/26 17:33:48;;;;;;;2.57;2.37;;;26.00;41.30;;;;;;8262070;28;20385;-49
2021/06/26 17:37:49;;;;;;;3.35;3.03;;;26.00;41.30;;;;;;8261551;28;20064;-46
2021/06/26 17:41:49;;;;;;;;;;;26.00;41.20;;;;;;8262258;28;20519;-48
2021/06/26 17:45:52;;;;;;;3.47;3.10;;;26.10;41.30;;;;;;8260646;28;19920;-50
2021/06/26 17:49:52;;;;;;;2.97;2.67;;;26.00;41.40;;;;;;8265450;28;20030;-48
2021/06/26 17:53:53;;;;;;;2.85;2.50;;;26.00;41.40;;;;;;8261408;28;20046;-47
2021/06/26 17:57:53;;;;;;;3.22;2.72;;;26.00;41.50;;;;;;8261384;28;20067;-47
2021/06/26 18:01:54;;;;;;;;;;;26.00;41.50;;;;;;8262160;28;20038;-48
2021/06/26 18:05:54;;;;;;;3.57;2.83;;;26.00;41.50;;;;;;8266072;28;19964;-48
2021/06/26 18:09:56;;;;;;;;;;;26.00;41.60;;;;;;8261151;28;20038;-48
2021/06/26 18:13:57;;;;;;;3.80;2.72;;;26.00;41.70;;;;;;8261244;28;20268;-47
2021/06/26 18:17:58;;;;;;;3.00;2.45;;;25.90;41.60;;;;;;8261039;28;20066;-49
2021/06/26 18:21:59;;;;;;;;;;;26.00;41.60;;;;;;8261049;28;20038;-48
2021/06/26 18:25:59;;;;;;;3.27;2.80;;;26.00;41.70;;;;;;8265467;28;19910;-48
2021/06/26 18:30:00;;;;;;;;;;;26.00;41.90;;;;;;8261092;28;20488;-48
2021/06/26 18:34:00;;;;;;;3.63;2.57;;;26.00;41.90;;;;;;8260407;28;19913;-49
2021/06/26 18:38:01;;;;;;;3.78;3.03;;;26.00;41.90;;;;;;8260778;28;20050;-49
2021/06/26 18:42:06;;;;;;;2.78;2.58;;;26.00;41.90;;;;;;8265396;28;20444;-49
2021/06/26 18:46:06;;;;;;;2.95;2.55;;;25.90;41.80;;;;;;8260111;28;20039;-49
2021/06/26 18:50:09;;;;;;;2.85;2.65;;;25.90;41.80;;;;;;8261055;28;20034;-49
2021/06/26 18:54:09;;;;;;;2.95;2.50;;;25.90;41.80;;;;;;8260595;28;20089;-50
2021/06/26 18:58:10;;;;;;;3.63;2.90;;;26.00;42.00;;;;;;8264505;28;20062;-47
2021/06/26 19:02:11;;;;;;;;;;;25.90;42.00;;;;;;8260837;28;20101;-49
2021/06/26 19:06:12;;;;;;;3.50;2.70;;;25.90;42.10;;;;;;8260272;28;20295;-49
2021/06/26 19:10:19;;;;;;;3.15;2.63;;;25.90;42.20;;;;;;8265604;28;20034;-48
2021/06/26 19:14:19;;;;;;;2.40;2.20;;;25.90;42.20;;;;;;8266688;28;20535;-47
2021/06/26 19:18:20;;;;;;;3.13;2.55;;;25.90;42.20;;;;;;8270756;28;20042;-48
2021/06/26 19:22:20;;;;;;;;;;;25.90;42.20;;;;;;8266675;28;20057;-49
2021/06/26 19:26:21;;;;;;;3.00;2.53;;;25.90;42.20;;;;;;8266027;28;19917;-51
2021/06/26 19:30:22;;;;;;;2.95;2.60;;;25.90;42.10;;;;;;8266190;28;20078;-48
2021/06/26 19:34:22;;;;;;;;;;;25.80;42.00;;;;;;8270154;28;20031;-50
2021/06/26 19:38:25;;;;;;;2.83;2.50;;;25.80;42.00;;;;;;8265711;28;19922;-48
2021/06/26 19:42:26;;;;;;;3.10;2.47;;;25.80;42.10;;;;;;8266122;28;20034;-47
2021/06/26 19:46:26;;;;;;;3.92;2.83;;;25.80;42.20;;;;;;8264921;28;20404;-51
2021/06/26 19:50:27;;;;;;;2.90;2.58;;;25.80;42.10;;;;;;8265396;28;20027;-48
2021/06/26 19:54:27;;;;;;;;;;;25.80;42.10;;;;;;8269849;28;20125;-48
2021/06/26 19:58:30;;;;;;;3.83;2.70;;;25.80;42.20;;;;;;8264594;28;19972;-49
2021/06/26 20:02:31;;;;;;;3.38;2.75;;;25.80;42.10;;;;;;8265051;28;20061;-49
2021/06/26 20:06:32;;;;;;;3.05;2.70;;;25.80;42.10;;;;;;8264914;28;20031;-49
2021/06/26 20:10:33;;;;;;;3.50;2.67;;;25.80;42.10;;;;;;8268828;28;20514;-49
2021/06/26 20:14:34;;;;;;;;;;;25.80;42.10;;;;;;8265291;28;20045;-49
2021/06/26 20:18:34;;;;;;;3.20;2.90;;;25.80;42.10;;;;;;8263715;28;20375;-48
2021/06/26 20:22:35;;;;;;;3.53;2.83;;;25.80;42.10;;;;;;8263884;28;20492;-49
2021/06/26 20:26:36;;;;;;;;;;;25.80;42.20;;;;;;8269486;28;20554;-48
2021/06/26 20:30:36;;;;;;;3.10;2.60;;;25.80;42.20;;;;;;8264330;28;19913;-49
2021/06/26 20:34:37;;;;;;;4.20;3.28;;;25.80;42.20;;;;;;8263602;28;20035;-51
2021/06/26 20:38:37;;;;;;;4.82;2.97;;;25.80;42.10;;;;;;8264036;28;20432;-51
2021/06/26 20:42:38;;;;;;;4.05;2.78;;;25.80;42.20;;;;;;8263910;28;20093;-49
2021/06/26 20:46:39;;;;;;;;;;;25.80;42.20;;;;;;8268252;28;20033;-52
2021/06/26 20:50:40;;;;;;;3.37;3.00;;;25.70;42.10;;;;;;8263372;28;20272;-50
2021/06/26 20:54:40;;;;;;;;;;;25.80;42.20;;;;;;8263902;28;20109;-51
2021/06/26 20:58:41;;;;;;;3.40;2.67;;;25.80;42.20;;;;;;8262726;28;19941;-49
2021/06/26 21:02:44;;;;;;;3.25;2.90;;;25.70;42.70;;;;;;8267579;28;20050;-52
2021/06/26 21:06:45;;;;;;;5.55;3.38;;;25.70;42.20;;;;;;8234340;28;20044;-48
2021/06/26 21:10:45;;;;;;;3.38;2.85;;;25.70;42.20;;;;;;8250710;28;20062;-49
2021/06/26 21:14:46;;;;;;;;;;;25.70;42.20;;;;;;8263099;28;20030;-48